TOM3NT EGKK-LCPH
Flight info
| Callsign | TOM3NT |
|---|---|
| Flight time | N/A |
| Altitude | 39000 |
| Route | ODVIK Y311 DVR UL9 KONAN DCT KOK DCT KOMOB DCT EDISA DCT KUNOD DCT GEDSO DCT VEKEN DCT KANIN DCT NEMEK DCT TUPUS DCT EDALA DCT RUDAR DCT OSLUD DCT GORAV DCT MODRA DCT MEDUX UM867 KOGAT DCT ERANA UL737 TSL UN130 MES UL609 RDS UM601 EVENO DCT DASNI M32 TOBAL |
| Aircraft | B789/H-SDE1E2E3FGHIJ2J3J4J5M1RWXY/KG1D1 |
Departure
| Time | 2026-04-14 08:43 |
|---|---|
| Airport | London Gatwick Airport (EGKK) |
Arrival
| Time | N/A |
|---|---|
| Airport | Paphos International Airport (LCPH) |
| Time | Latitude | Longitude | Altitude | Speed | Heading |
|---|---|---|---|---|---|
| 2026-04-14 08:39 | 51.14811 | -0.21055 | 205 ft | 0 kts | 257° |
| 2026-04-14 08:41 | 51.14809 | -0.21069 | 205 ft | 4 kts | 257° |
| 2026-04-14 08:41 | 51.14792 | -0.21154 | 205 ft | 11 kts | 247° |
| 2026-04-14 08:41 | 51.14772 | -0.21256 | 205 ft | 16 kts | 257° |
| 2026-04-14 08:41 | 51.14690 | -0.21384 | 205 ft | 13 kts | 156° |
| 2026-04-14 08:42 | 51.14605 | -0.21321 | 205 ft | 13 kts | 165° |
| 2026-04-14 08:42 | 51.14532 | -0.21244 | 205 ft | 12 kts | 121° |
| 2026-04-14 08:42 | 51.14527 | -0.21114 | 205 ft | 11 kts | 79° |
| 2026-04-14 08:42 | 51.14563 | -0.20849 | 205 ft | 53 kts | 79° |
| 2026-04-14 08:43 | 51.14697 | -0.19886 | 205 ft | 125 kts | 78° |
| 2026-04-14 08:43 | 51.14936 | -0.18176 | 286 ft | 183 kts | 79° |
| 2026-04-14 08:43 | 51.15227 | -0.16171 | 1047 ft | 191 kts | 79° |
| 2026-04-14 08:43 | 51.15545 | -0.14112 | 1908 ft | 193 kts | 78° |
| 2026-04-14 08:44 | 51.15878 | -0.12060 | 2696 ft | 199 kts | 78° |
| 2026-04-14 08:44 | 51.16243 | -0.09837 | 3282 ft | 216 kts | 77° |
| 2026-04-14 08:44 | 51.16642 | -0.07466 | 3979 ft | 227 kts | 79° |
| 2026-04-14 08:44 | 51.16869 | -0.04946 | 4614 ft | 239 kts | 87° |
| 2026-04-14 08:45 | 51.16877 | -0.02221 | 5204 ft | 255 kts | 94° |
| 2026-04-14 08:45 | 51.16835 | 0.00681 | 5852 ft | 270 kts | 94° |
| 2026-04-14 08:45 | 51.16784 | 0.03697 | 6557 ft | 278 kts | 93° |
| 2026-04-14 08:45 | 51.16729 | 0.06791 | 7315 ft | 283 kts | 93° |
| 2026-04-14 08:46 | 51.16671 | 0.09976 | 8072 ft | 289 kts | 93° |
| 2026-04-14 08:46 | 51.16612 | 0.13162 | 8818 ft | 293 kts | 92° |
| 2026-04-14 08:46 | 51.16587 | 0.16423 | 9572 ft | 297 kts | 90° |
| 2026-04-14 08:46 | 51.16589 | 0.17500 | 9819 ft | 298 kts | 90° |
| 2026-04-14 08:47 | 51.16594 | 0.23007 | 10951 ft | 304 kts | 90° |
| 2026-04-14 08:47 | 51.16600 | 0.26404 | 11684 ft | 309 kts | 90° |
| 2026-04-14 08:47 | 51.16602 | 0.28717 | 12200 ft | 311 kts | 90° |
| 2026-04-14 08:47 | 51.16607 | 0.33334 | 13168 ft | 317 kts | 89° |
| 2026-04-14 08:48 | 51.16611 | 0.36875 | 13793 ft | 324 kts | 89° |
| 2026-04-14 08:48 | 51.16614 | 0.40473 | 14423 ft | 330 kts | 89° |
| 2026-04-14 08:48 | 51.16614 | 0.41708 | 14637 ft | 332 kts | 89° |
| 2026-04-14 08:48 | 51.16615 | 0.45403 | 15237 ft | 339 kts | 89° |
| 2026-04-14 08:49 | 51.16614 | 0.48534 | 15654 ft | 346 kts | 89° |
| 2026-04-14 08:49 | 51.16614 | 0.49809 | 15826 ft | 349 kts | 89° |
| 2026-04-14 08:49 | 51.16613 | 0.51111 | 15999 ft | 352 kts | 89° |
| 2026-04-14 08:50 | 51.16607 | 0.66032 | 17890 ft | 381 kts | 89° |
| 2026-04-14 08:50 | 51.16600 | 0.71720 | 18564 ft | 389 kts | 89° |
| 2026-04-14 08:50 | 51.16591 | 0.76013 | 19064 ft | 395 kts | 89° |
| 2026-04-14 08:50 | 51.16580 | 0.80433 | 19569 ft | 400 kts | 89° |
| 2026-04-14 08:51 | 51.16567 | 0.84889 | 20071 ft | 404 kts | 89° |
| 2026-04-14 08:51 | 51.16551 | 0.89394 | 20573 ft | 408 kts | 89° |
| 2026-04-14 08:51 | 51.16534 | 0.93898 | 21072 ft | 412 kts | 89° |
| 2026-04-14 08:51 | 51.16515 | 0.98511 | 21579 ft | 415 kts | 89° |
| 2026-04-14 08:52 | 51.16494 | 1.03074 | 22078 ft | 417 kts | 88° |
| 2026-04-14 08:52 | 51.16472 | 1.07698 | 22586 ft | 419 kts | 88° |
| 2026-04-14 08:52 | 51.16447 | 1.12263 | 23323 ft | 409 kts | 88° |
| 2026-04-14 08:52 | 51.16423 | 1.16805 | 23647 ft | 417 kts | 88° |
| 2026-04-14 08:53 | 51.16398 | 1.21446 | 23898 ft | 425 kts | 88° |
| 2026-04-14 08:53 | 51.16367 | 1.26193 | 24340 ft | 428 kts | 88° |
| 2026-04-14 08:53 | 51.16333 | 1.30945 | 24784 ft | 431 kts | 88° |
| 2026-04-14 08:53 | 51.16269 | 1.35749 | 25198 ft | 435 kts | 91° |
| 2026-04-14 08:54 | 51.16057 | 1.40545 | 25602 ft | 438 kts | 92° |
| 2026-04-14 08:54 | 51.15986 | 1.42138 | 25732 ft | 439 kts | 92° |
| 2026-04-14 08:54 | 51.15911 | 1.43779 | 25865 ft | 440 kts | 92° |
| 2026-04-14 08:54 | 51.15758 | 1.47026 | 26126 ft | 442 kts | 92° |